createdAt,value
2019-02-14T00:00:06.921Z,7.02
2019-02-14T00:01:06.909Z,7.01
2019-02-14T00:02:06.896Z,6.98
2019-02-14T00:03:06.887Z,6.95
2019-02-14T00:04:06.903Z,7.05
2019-02-14T00:05:06.869Z,7.01
2019-02-14T00:06:06.852Z,7.05
2019-02-14T00:07:06.842Z,6.91
2019-02-14T00:08:06.830Z,7.05
2019-02-14T00:09:06.854Z,6.99
2019-02-14T00:10:06.812Z,6.98
2019-02-14T00:11:06.803Z,7.01
2019-02-14T00:12:06.793Z,7.01
2019-02-14T00:13:06.784Z,7.02
2019-02-14T00:14:06.812Z,6.99
2019-02-14T00:15:06.762Z,7.01
2019-02-14T00:16:06.749Z,6.89
2019-02-14T00:17:06.735Z,6.98
2019-02-14T00:18:06.728Z,6.99
2019-02-14T00:19:06.795Z,6.97
2019-02-14T00:20:06.706Z,7.01
2019-02-14T00:21:06.696Z,6.98
2019-02-14T00:22:06.680Z,6.98
2019-02-14T00:23:06.668Z,6.94
2019-02-14T00:24:06.664Z,6.97
2019-02-14T00:25:06.692Z,6.94
2019-02-14T00:26:06.640Z,6.90
2019-02-14T00:27:06.624Z,6.89
2019-02-14T00:28:06.614Z,6.95
2019-02-14T00:29:06.605Z,6.90
2019-02-14T00:30:06.677Z,6.87
2019-02-14T00:31:06.580Z,6.91
2019-02-14T00:32:06.572Z,6.91
2019-02-14T00:33:06.559Z,6.94
2019-02-14T00:34:06.547Z,6.94
2019-02-14T00:35:06.543Z,6.83
2019-02-14T00:36:06.561Z,6.86
2019-02-14T00:37:06.515Z,6.86
2019-02-14T00:38:06.517Z,6.86
2019-02-14T00:39:06.495Z,6.86
2019-02-14T00:40:06.487Z,6.80
2019-02-14T00:41:06.542Z,6.89
2019-02-14T00:42:06.465Z,6.84
2019-02-14T00:43:06.451Z,6.83
2019-02-14T00:44:06.443Z,6.84
2019-02-14T00:45:06.432Z,6.84
2019-02-14T00:46:06.416Z,6.89
2019-02-14T00:47:06.430Z,6.84
2019-02-14T00:48:06.400Z,6.90
2019-02-14T00:49:06.385Z,6.90
2019-02-14T00:50:06.380Z,6.84
2019-02-14T00:51:06.389Z,6.98
2019-02-14T00:52:06.358Z,6.90
2019-02-14T00:53:06.340Z,6.95
2019-02-14T00:54:06.334Z,6.91
2019-02-14T00:55:06.318Z,6.89
2019-02-14T00:56:06.377Z,6.87
2019-02-14T00:57:06.301Z,6.95
2019-02-14T00:58:06.294Z,6.98
2019-02-14T00:59:06.280Z,6.89
2019-02-14T01:00:06.265Z,6.97
2019-02-14T01:01:06.261Z,6.94
2019-02-14T01:02:06.280Z,6.89
2019-02-14T01:03:06.232Z,6.97
2019-02-14T01:04:06.247Z,6.90
2019-02-14T01:05:06.281Z,7.02
2019-02-14T01:06:06.201Z,6.98
2019-02-14T01:07:06.192Z,6.97
2019-02-14T01:08:06.181Z,6.98
2019-02-14T01:09:06.168Z,6.97
2019-02-14T01:10:06.155Z,7.01
2019-02-14T01:11:06.159Z,6.91
2019-02-14T01:12:06.139Z,6.98
2019-02-14T01:13:06.135Z,6.98
2019-02-14T01:14:06.118Z,6.87
2019-02-14T01:15:06.100Z,6.98
2019-02-14T01:16:06.166Z,6.89
2019-02-14T01:17:06.083Z,6.94
2019-02-14T01:18:06.080Z,6.91
2019-02-14T01:19:06.061Z,6.98
2019-02-14T01:20:06.047Z,6.95
2019-02-14T01:21:06.040Z,6.95
2019-02-14T01:22:06.068Z,6.94
2019-02-14T01:23:06.014Z,6.95
2019-02-14T01:24:06.008Z,7.01
2019-02-14T01:25:05.996Z,6.97
2019-02-14T01:26:05.985Z,6.91
2019-02-14T01:27:05.975Z,6.99
2019-02-14T01:28:06.000Z,6.97
2019-02-14T01:29:05.955Z,6.91
2019-02-14T01:30:05.943Z,6.91
2019-02-14T01:31:05.927Z,6.94
2019-02-14T01:32:05.915Z,6.84
2019-02-14T01:33:05.941Z,6.86
2019-02-14T01:34:05.898Z,6.90
2019-02-14T01:35:05.889Z,6.91
2019-02-14T01:36:05.882Z,6.90
2019-02-14T01:37:05.898Z,6.87
2019-02-14T01:38:05.856Z,6.98
2019-02-14T01:39:05.843Z,6.86
2019-02-14T01:40:05.828Z,6.83
2019-02-14T01:41:05.815Z,6.81
2019-02-14T01:42:05.818Z,6.81
2019-02-14T01:43:05.834Z,6.87
2019-02-14T01:44:05.787Z,6.80
2019-02-14T01:45:05.773Z,6.84
2019-02-14T01:46:05.787Z,6.84
2019-02-14T01:47:05.755Z,6.81
2019-02-14T01:48:05.745Z,6.86
2019-02-14T01:49:05.733Z,6.81
2019-02-14T01:50:05.726Z,6.87
2019-02-14T01:51:05.731Z,6.83
2019-02-14T01:52:05.697Z,6.81
2019-02-14T01:53:05.699Z,6.83
2019-02-14T01:54:05.681Z,6.81
2019-02-14T01:55:05.663Z,6.84
2019-02-14T01:56:05.659Z,6.86
2019-02-14T01:57:05.647Z,6.87
2019-02-14T01:58:05.684Z,6.87
2019-02-14T01:59:05.620Z,6.89
2019-02-14T02:00:05.608Z,6.81
2019-02-14T02:01:05.603Z,6.86
2019-02-14T02:02:05.590Z,6.83
2019-02-14T02:03:05.577Z,6.84
2019-02-14T02:04:05.574Z,6.83
2019-02-14T02:05:05.559Z,6.81
2019-02-14T02:06:05.554Z,6.84
2019-02-14T02:07:05.541Z,6.81
2019-02-14T02:08:05.528Z,6.86
2019-02-14T02:09:05.556Z,6.83
2019-02-14T02:10:05.507Z,6.87
2019-02-14T02:11:05.538Z,6.81
2019-02-14T02:12:05.479Z,6.94
2019-02-14T02:13:05.485Z,6.83
2019-02-14T02:14:05.462Z,6.86
2019-02-14T02:15:05.481Z,6.83
2019-02-14T02:16:05.440Z,6.89
2019-02-14T02:17:05.436Z,6.90
2019-02-14T02:18:05.485Z,6.84
2019-02-14T02:19:05.403Z,6.95
2019-02-14T02:20:05.390Z,6.81
2019-02-14T02:21:05.386Z,6.97
2019-02-14T02:22:05.369Z,6.90
2019-02-14T02:23:05.363Z,6.84
2019-02-14T02:24:05.384Z,6.86
2019-02-14T02:25:05.339Z,6.84
2019-02-14T02:26:05.371Z,6.90
2019-02-14T02:27:05.319Z,6.84
2019-02-14T02:28:05.311Z,6.91
2019-02-14T02:29:05.295Z,6.84
2019-02-14T02:30:05.290Z,6.83
2019-02-14T02:31:05.342Z,6.94
2019-02-14T02:32:05.259Z,6.97
2019-02-14T02:33:05.255Z,6.87
2019-02-14T02:34:05.242Z,6.84
2019-02-14T02:35:05.227Z,6.97
2019-02-14T02:36:05.222Z,6.83
2019-02-14T02:37:05.218Z,6.87
2019-02-14T02:38:05.231Z,6.91
2019-02-14T02:39:05.186Z,6.81
2019-02-14T02:40:05.176Z,6.86
2019-02-14T02:41:05.169Z,6.91
2019-02-14T02:42:05.160Z,6.99
2019-02-14T02:43:05.142Z,6.90
2019-02-14T02:44:05.167Z,6.86
2019-02-14T02:45:05.135Z,6.86
2019-02-14T02:46:05.107Z,6.81
2019-02-14T02:47:05.107Z,6.94
2019-02-14T02:48:05.087Z,6.86
2019-02-14T02:49:05.082Z,6.90
2019-02-14T02:50:05.076Z,6.90
2019-02-14T02:51:05.074Z,6.91
2019-02-14T02:52:05.042Z,6.89
2019-02-14T02:53:05.056Z,6.86
2019-02-14T02:54:05.024Z,6.97
2019-02-14T02:55:05.011Z,6.94
2019-02-14T02:56:05.005Z,6.89
2019-02-14T02:57:05.009Z,6.97
2019-02-14T02:58:04.982Z,6.95
2019-02-14T02:59:04.972Z,6.97
2019-02-14T03:00:04.965Z,6.89
2019-02-14T03:01:05.012Z,6.95
2019-02-14T03:02:04.941Z,6.91
2019-02-14T03:03:04.928Z,6.98
2019-02-14T03:04:04.919Z,6.95
2019-02-14T03:05:04.907Z,6.90
2019-02-14T03:06:10.487Z,6.97
2019-02-14T03:07:05.913Z,6.94
2019-02-14T03:08:04.875Z,6.91
2019-02-14T03:09:04.860Z,6.97
2019-02-14T03:10:04.849Z,6.98
2019-02-14T03:11:04.836Z,6.98
2019-02-14T03:12:04.846Z,6.95
2019-02-14T03:13:04.814Z,6.98
2019-02-14T03:14:04.826Z,6.94
2019-02-14T03:15:04.796Z,6.89
2019-02-14T03:16:04.789Z,6.94
2019-02-14T03:17:04.773Z,6.89
2019-02-14T03:18:04.761Z,6.95
2019-02-14T03:19:04.825Z,6.95
2019-02-14T03:20:04.752Z,6.89
2019-02-14T03:21:04.734Z,6.95
2019-02-14T03:22:04.716Z,6.91
2019-02-14T03:23:04.706Z,6.90
2019-02-14T03:24:04.694Z,6.94
2019-02-14T03:25:04.700Z,6.98
2019-02-14T03:26:04.679Z,6.90
2019-02-14T03:27:04.662Z,6.91
2019-02-14T03:28:04.658Z,6.91
2019-02-14T03:29:04.644Z,6.94
2019-02-14T03:30:04.648Z,6.91
2019-02-14T03:31:04.625Z,6.97
2019-02-14T03:32:04.615Z,6.94
2019-02-14T03:33:04.612Z,6.87
2019-02-14T03:34:04.587Z,6.99
2019-02-14T03:35:04.579Z,6.98
2019-02-14T03:36:04.576Z,6.98
2019-02-14T03:37:04.559Z,6.97
2019-02-14T03:38:04.549Z,6.94
2019-02-14T03:39:04.537Z,7.01
2019-02-14T03:40:04.523Z,6.89
2019-02-14T03:41:04.534Z,6.97
2019-02-14T03:42:04.506Z,6.99
2019-02-14T03:43:04.488Z,6.94
2019-02-14T03:44:04.502Z,6.97
2019-02-14T03:45:04.471Z,6.94
2019-02-14T03:46:04.457Z,7.04
2019-02-14T03:47:04.451Z,7.05
2019-02-14T03:48:04.436Z,6.97
2019-02-14T03:49:04.452Z,6.91
2019-02-14T03:50:04.413Z,6.97
2019-02-14T03:51:04.406Z,6.94
2019-02-14T03:52:04.396Z,6.91
2019-02-14T03:53:04.385Z,6.95
2019-02-14T03:54:04.373Z,6.91
2019-02-14T03:55:04.395Z,6.95
2019-02-14T03:56:04.356Z,6.94
2019-02-14T03:57:04.336Z,6.97
2019-02-14T03:58:04.324Z,6.91
2019-02-14T03:59:04.317Z,6.86
2019-02-14T04:00:04.304Z,6.94
2019-02-14T04:01:04.355Z,6.94
2019-02-14T04:02:04.283Z,6.94
2019-02-14T04:03:04.271Z,6.97
2019-02-14T04:04:04.295Z,6.90
2019-02-14T04:05:04.249Z,6.84
2019-02-14T04:06:04.241Z,6.90
2019-02-14T04:07:04.235Z,6.86
2019-02-14T04:08:04.221Z,6.86
2019-02-14T04:09:04.260Z,6.90
2019-02-14T04:10:04.194Z,6.98
2019-02-14T04:11:04.192Z,6.94
2019-02-14T04:12:04.179Z,6.83
2019-02-14T04:13:04.166Z,6.91
2019-02-14T04:14:04.151Z,6.91
2019-02-14T04:15:04.177Z,6.91
2019-02-14T04:16:04.592Z,6.95
2019-02-14T04:17:04.124Z,6.87
2019-02-14T04:18:04.112Z,6.84
2019-02-14T04:19:04.098Z,6.86
2019-02-14T04:20:04.111Z,6.94
2019-02-14T04:21:04.075Z,6.90
2019-02-14T04:22:04.064Z,6.97
2019-02-14T04:23:04.053Z,6.95
2019-02-14T04:24:04.048Z,6.81
2019-02-14T04:25:04.105Z,6.86
2019-02-14T04:26:04.029Z,6.89
2019-02-14T04:27:04.017Z,6.90
2019-02-14T04:28:03.999Z,6.81
2019-02-14T04:29:03.993Z,6.84
2019-02-14T04:30:04.014Z,6.84
2019-02-14T04:31:04.001Z,6.87
2019-02-14T04:32:03.987Z,6.89
2019-02-14T04:33:03.945Z,6.90
2019-02-14T04:34:03.933Z,6.90
2019-02-14T04:35:03.928Z,6.86
2019-02-14T04:36:03.963Z,6.83
2019-02-14T04:37:03.906Z,6.94
2019-02-14T04:38:03.892Z,6.84
2019-02-14T04:39:03.889Z,6.84
2019-02-14T04:40:03.872Z,6.84
2019-02-14T04:41:03.864Z,6.89
2019-02-14T04:42:03.883Z,6.87
2019-02-14T04:43:03.837Z,6.90
2019-02-14T04:44:03.828Z,6.84
2019-02-14T04:45:03.816Z,6.94
2019-02-14T04:46:03.874Z,6.87
2019-02-14T04:47:03.791Z,6.94
2019-02-14T04:48:03.780Z,6.95
2019-02-14T04:49:03.775Z,6.94
2019-02-14T04:50:03.787Z,6.97
2019-02-14T04:51:03.764Z,6.94
2019-02-14T04:52:03.739Z,6.89
2019-02-14T04:53:03.728Z,6.94
2019-02-14T04:54:03.717Z,6.95
2019-02-14T04:55:03.716Z,7.01
2019-02-14T04:56:03.741Z,6.97
2019-02-14T04:57:03.688Z,6.87
2019-02-14T04:58:03.676Z,6.95
2019-02-14T04:59:03.665Z,6.87
2019-02-14T05:00:03.664Z,6.94
2019-02-14T05:01:03.643Z,6.99
2019-02-14T05:02:03.663Z,7.01
2019-02-14T05:03:03.619Z,6.91
2019-02-14T05:04:03.610Z,7.01
2019-02-14T05:05:03.602Z,6.94
2019-02-14T05:06:03.590Z,6.97
2019-02-14T05:07:03.576Z,6.98
2019-02-14T05:08:03.651Z,6.97
2019-02-14T05:09:03.553Z,7.02
2019-02-14T05:10:03.544Z,6.99
2019-02-14T05:11:03.539Z,7.02
2019-02-14T05:12:03.525Z,7.02
2019-02-14T05:13:03.557Z,7.02
2019-02-14T05:14:03.507Z,6.99
2019-02-14T05:15:03.529Z,7.09
2019-02-14T05:16:03.482Z,6.99
2019-02-14T05:17:03.469Z,7.04
2019-02-14T05:18:03.484Z,7.05
2019-02-14T05:19:03.449Z,7.02
2019-02-14T05:20:03.435Z,7.08
2019-02-14T05:21:03.426Z,7.05
2019-02-14T05:22:03.428Z,7.02
2019-02-14T05:23:03.409Z,7.02
2019-02-14T05:24:03.408Z,7.05
2019-02-14T05:25:03.384Z,7.01
2019-02-14T05:26:03.369Z,7.08
2019-02-14T05:27:03.359Z,7.08
2019-02-14T05:28:03.351Z,7.01
2019-02-14T05:29:03.350Z,7.01
2019-02-14T05:30:03.330Z,7.04
2019-02-14T05:31:03.316Z,7.08
2019-02-14T05:32:03.308Z,7.08
2019-02-14T05:33:03.315Z,7.07
2019-02-14T05:34:03.289Z,7.05
2019-02-14T05:35:03.270Z,7.08
2019-02-14T05:36:03.268Z,7.04
2019-02-14T05:37:03.253Z,7.04
2019-02-14T05:38:03.266Z,7.05
2019-02-14T05:39:03.227Z,7.09
2019-02-14T05:40:03.231Z,7.07
2019-02-14T05:41:03.205Z,7.02
2019-02-14T05:42:03.195Z,7.07
2019-02-14T05:43:03.188Z,7.12
2019-02-14T05:44:03.173Z,7.02
2019-02-14T05:45:03.197Z,7.12
2019-02-14T05:46:03.181Z,6.97
2019-02-14T05:47:03.144Z,7.08
2019-02-14T05:48:03.128Z,7.09
2019-02-14T05:49:03.117Z,7.07
2019-02-14T05:50:03.121Z,7.07
2019-02-14T05:51:03.135Z,7.08
2019-02-14T05:52:03.091Z,7.09
2019-02-14T05:53:03.074Z,7.09
2019-02-14T05:54:03.065Z,7.08
2019-02-14T05:55:03.059Z,7.09
2019-02-14T05:56:03.053Z,7.08
2019-02-14T05:57:03.034Z,7.09
2019-02-14T05:58:03.025Z,7.08
2019-02-14T05:59:03.017Z,7.12
2019-02-14T06:00:03.004Z,7.04
2019-02-14T06:01:03.061Z,7.08
2019-02-14T06:02:02.976Z,7.08
2019-02-14T06:03:02.971Z,7.09
2019-02-14T06:04:02.955Z,7.08
2019-02-14T06:05:02.945Z,7.12
2019-02-14T06:06:02.941Z,7.12
2019-02-14T06:07:02.960Z,7.08
2019-02-14T06:08:02.911Z,7.08
2019-02-14T06:09:02.906Z,7.09
2019-02-14T06:10:02.895Z,7.08
2019-02-14T06:11:02.881Z,7.08
2019-02-14T06:12:02.923Z,7.12
2019-02-14T06:13:02.861Z,7.09
2019-02-14T06:14:02.850Z,7.08
2019-02-14T06:15:02.839Z,7.09
2019-02-14T06:16:02.827Z,7.02
2019-02-14T06:17:02.820Z,7.04
2019-02-14T06:18:02.825Z,7.08
2019-02-14T06:19:02.793Z,7.07
2019-02-14T06:20:02.781Z,7.09
2019-02-14T06:21:02.776Z,7.07
2019-02-14T06:22:02.759Z,7.05
2019-02-14T06:23:02.785Z,7.07
2019-02-14T06:24:02.742Z,7.02
2019-02-14T06:25:02.733Z,7.09
2019-02-14T06:26:02.721Z,7.07
2019-02-14T06:27:02.709Z,7.07
2019-02-14T06:28:02.739Z,7.09
2019-02-14T06:29:02.692Z,7.07
2019-02-14T06:30:02.678Z,7.09
2019-02-14T06:31:02.662Z,7.09
2019-02-14T06:32:02.662Z,7.05
2019-02-14T06:33:02.646Z,7.02
2019-02-14T06:34:02.663Z,7.07
2019-02-14T06:35:02.624Z,7.13
2019-02-14T06:36:02.609Z,7.08
2019-02-14T06:37:09.473Z,7.04
2019-02-14T06:38:03.583Z,7.12
2019-02-14T06:39:02.597Z,7.08
2019-02-14T06:40:02.564Z,7.08
2019-02-14T06:41:03.668Z,7.09
2019-02-14T06:42:02.547Z,7.09
2019-02-14T06:43:02.531Z,7.04
2019-02-14T06:44:02.581Z,7.05
2019-02-14T06:45:02.510Z,7.13
2019-02-14T06:46:02.526Z,7.15
2019-02-14T06:47:02.487Z,7.15
2019-02-14T06:48:02.484Z,7.05
2019-02-14T06:49:02.471Z,7.13
2019-02-14T06:50:02.486Z,7.12
2019-02-14T06:51:02.448Z,7.13
2019-02-14T06:52:02.503Z,7.17
2019-02-14T06:53:02.427Z,7.17
2019-02-14T06:54:02.411Z,7.22
2019-02-14T06:55:02.404Z,7.24
2019-02-14T06:56:02.390Z,7.13
2019-02-14T06:57:02.379Z,7.07
2019-02-14T06:58:02.439Z,7.17
2019-02-14T06:59:02.364Z,7.20
2019-02-14T07:00:02.351Z,7.31
2019-02-14T07:01:02.341Z,7.20
2019-02-14T07:02:02.323Z,7.27
2019-02-14T07:03:02.319Z,7.24
2019-02-14T07:04:02.318Z,7.32
2019-02-14T07:05:02.290Z,7.26
2019-02-14T07:06:02.367Z,7.26
2019-02-14T07:07:02.273Z,7.37
2019-02-14T07:08:02.257Z,7.32
2019-02-14T07:09:02.254Z,7.26
2019-02-14T07:10:02.242Z,7.31
2019-02-14T07:11:02.229Z,7.38
2019-02-14T07:12:02.250Z,7.32
2019-02-14T07:13:02.207Z,7.42
2019-02-14T07:14:02.193Z,7.26
2019-02-14T07:15:02.186Z,7.44
2019-02-14T07:16:02.176Z,7.34
2019-02-14T07:17:02.172Z,7.41
2019-02-14T07:18:02.148Z,7.40
2019-02-14T07:19:02.145Z,7.35
2019-02-14T07:20:02.141Z,7.42
2019-02-14T07:21:02.120Z,7.42
2019-02-14T07:22:02.132Z,7.29
2019-02-14T07:23:02.166Z,7.42
2019-02-14T07:24:02.082Z,7.34
2019-02-14T07:25:02.077Z,7.41
2019-02-14T07:26:02.065Z,7.42
2019-02-14T07:27:02.049Z,7.44
2019-02-14T07:28:02.072Z,7.38
2019-02-14T07:29:02.034Z,7.38
2019-02-14T07:30:02.017Z,7.42
2019-02-14T07:31:02.007Z,7.42
2019-02-14T07:32:01.996Z,7.41
2019-02-14T07:33:01.985Z,7.40
2019-02-14T07:34:01.993Z,7.40
2019-02-14T07:35:01.962Z,7.41
2019-02-14T07:36:01.952Z,7.44
2019-02-14T07:37:01.947Z,7.47
2019-02-14T07:38:01.934Z,7.52
2019-02-14T07:39:01.933Z,7.45
2019-02-14T07:40:01.944Z,7.49
2019-02-14T07:41:01.903Z,7.44
2019-02-14T07:42:01.885Z,7.41
2019-02-14T07:43:01.877Z,7.37
2019-02-14T07:44:01.863Z,7.44
2019-02-14T07:45:01.853Z,7.52
2019-02-14T07:46:01.856Z,7.49
2019-02-14T07:47:01.831Z,7.55
2019-02-14T07:48:01.826Z,7.52
2019-02-14T07:49:01.812Z,7.53
2019-02-14T07:50:01.802Z,7.50
2019-02-14T07:51:01.799Z,7.44
2019-02-14T07:52:01.780Z,7.53
2019-02-14T07:53:01.773Z,7.49
2019-02-14T07:54:01.757Z,7.50
2019-02-14T07:55:01.813Z,7.41
2019-02-14T07:56:01.744Z,7.52
2019-02-14T07:57:01.741Z,7.55
2019-02-14T07:58:01.709Z,7.42
2019-02-14T07:59:01.696Z,7.49
2019-02-14T08:00:01.688Z,7.38
2019-02-14T08:01:01.679Z,7.38
2019-02-14T08:02:01.713Z,7.45
2019-02-14T08:03:01.654Z,7.50
2019-02-14T08:04:01.643Z,7.50
2019-02-14T08:05:01.631Z,7.44
2019-02-14T08:06:01.621Z,7.49
2019-02-14T08:07:01.614Z,7.53
2019-02-14T08:08:01.660Z,7.56
2019-02-14T08:09:01.592Z,7.38
2019-02-14T08:10:01.585Z,7.49
2019-02-14T08:11:01.570Z,7.49
2019-02-14T08:12:01.564Z,7.56
2019-02-14T08:13:01.547Z,7.55
2019-02-14T08:14:01.541Z,7.52
2019-02-14T08:15:01.532Z,7.52
2019-02-14T08:16:01.514Z,7.52
2019-02-14T08:17:01.507Z,7.52
2019-02-14T08:18:01.523Z,7.55
2019-02-14T08:19:01.482Z,7.58
2019-02-14T08:20:01.471Z,7.55
2019-02-14T08:21:01.455Z,7.53
2019-02-14T08:22:01.443Z,7.52
2019-02-14T08:23:01.449Z,7.49
2019-02-14T08:24:01.425Z,7.58
2019-02-14T08:25:01.411Z,7.59
2019-02-14T08:26:10.392Z,7.72
2019-02-14T08:27:02.392Z,7.71
2019-02-14T08:28:01.425Z,7.60
2019-02-14T08:29:01.370Z,7.66
2019-02-14T08:30:01.369Z,7.67
2019-02-14T08:31:01.345Z,7.72
2019-02-14T08:32:01.339Z,7.63
2019-02-14T08:33:01.327Z,7.58
2019-02-14T08:34:01.346Z,7.59
2019-02-14T08:35:01.304Z,7.66
2019-02-14T08:36:01.293Z,7.62
2019-02-14T08:37:01.284Z,7.72
2019-02-14T08:38:01.272Z,7.67
2019-02-14T08:39:01.292Z,7.67
2019-02-14T08:40:01.276Z,7.67
2019-02-14T08:41:01.239Z,7.87
2019-02-14T08:42:01.223Z,7.82
2019-02-14T08:43:01.217Z,7.82
2019-02-14T08:44:01.269Z,7.85
2019-02-14T08:45:01.194Z,7.84
2019-02-14T08:46:01.179Z,7.79
2019-02-14T08:47:01.171Z,7.79
2019-02-14T08:48:01.161Z,7.89
2019-02-14T08:49:01.153Z,7.87
2019-02-14T08:50:01.161Z,7.96
2019-02-14T08:51:01.128Z,8.04
2019-02-14T08:52:01.115Z,8.02
2019-02-14T08:53:01.100Z,8.08
2019-02-14T08:54:01.094Z,8.10
2019-02-14T08:55:01.119Z,8.11
2019-02-14T08:56:01.072Z,8.08
2019-02-14T08:57:01.057Z,8.12
2019-02-14T08:58:01.045Z,8.17
2019-02-14T08:59:01.041Z,8.11
2019-02-14T09:00:01.037Z,8.10
2019-02-14T09:01:01.014Z,8.22
2019-02-14T09:02:01.002Z,8.21
2019-02-14T09:03:00.996Z,8.36
2019-02-14T09:04:00.981Z,8.36
2019-02-14T09:05:01.006Z,8.39
2019-02-14T09:06:00.995Z,8.44
2019-02-14T09:07:00.949Z,8.44
2019-02-14T09:08:00.937Z,8.40
2019-02-14T09:09:00.933Z,8.47
2019-02-14T09:10:00.916Z,8.72
2019-02-14T09:11:00.942Z,8.86
2019-02-14T09:12:00.920Z,8.94
2019-02-14T09:13:00.888Z,9.04
2019-02-14T09:14:00.878Z,9.05
2019-02-14T09:15:00.861Z,9.09
2019-02-14T09:16:00.921Z,9.04
2019-02-14T09:17:00.845Z,9.15
2019-02-14T09:18:00.865Z,9.20
2019-02-14T09:19:00.822Z,9.31
2019-02-14T09:20:00.818Z,9.34
2019-02-14T09:21:00.804Z,9.48
2019-02-14T09:22:00.789Z,9.58
2019-02-14T09:23:00.773Z,9.57
2019-02-14T09:24:00.833Z,9.67
2019-02-14T09:25:00.758Z,9.66
2019-02-14T09:26:02.399Z,9.64
2019-02-14T09:27:00.731Z,9.60
2019-02-14T09:28:00.718Z,9.63
2019-02-14T09:29:00.711Z,9.60
2019-02-14T09:30:00.732Z,9.66
2019-02-14T09:31:00.690Z,9.57
2019-02-14T09:32:00.678Z,9.63
2019-02-14T09:33:00.665Z,9.61
2019-02-14T09:34:00.723Z,9.68
2019-02-14T09:35:00.644Z,9.78
2019-02-14T09:36:00.629Z,9.68
2019-02-14T09:37:00.623Z,9.86
2019-02-14T09:38:03.308Z,9.94
2019-02-14T09:39:00.598Z,9.88
2019-02-14T09:40:00.619Z,9.86
2019-02-14T09:41:00.573Z,9.89
2019-02-14T09:42:00.566Z,9.97
2019-02-14T09:43:00.557Z,9.99
2019-02-14T09:44:00.564Z,10.00
2019-02-14T09:45:00.581Z,9.97
2019-02-14T09:46:00.532Z,10.01
2019-02-14T09:47:00.516Z,10.10
2019-02-14T09:48:00.506Z,10.03
2019-02-14T09:49:00.492Z,10.01
2019-02-14T09:50:00.514Z,9.97
2019-02-14T09:51:00.487Z,10.00
2019-02-14T09:52:00.463Z,10.09
2019-02-14T09:53:00.456Z,10.07
2019-02-14T09:54:00.433Z,10.19
2019-02-14T09:55:00.470Z,10.24
2019-02-14T09:56:00.408Z,10.17
2019-02-14T09:57:00.415Z,10.18
2019-02-14T09:58:00.394Z,10.18
2019-02-14T09:59:00.388Z,10.21
2019-02-14T10:00:00.391Z,10.18
2019-02-14T10:01:00.390Z,10.15
2019-02-14T10:02:00.345Z,10.07
2019-02-14T10:03:00.334Z,10.18
2019-02-14T10:04:00.321Z,10.46
2019-02-14T10:05:00.414Z,10.60
2019-02-14T10:06:00.335Z,10.55
2019-02-14T10:07:00.290Z,10.73
2019-02-14T10:08:00.282Z,10.94
2019-02-14T10:09:00.827Z,11.20
2019-02-14T10:10:00.350Z,11.02
2019-02-14T10:11:00.290Z,10.91
2019-02-14T10:12:00.285Z,10.92
2019-02-14T10:13:00.226Z,10.95
2019-02-14T10:14:00.211Z,10.94
2019-02-14T10:15:00.318Z,10.89
2019-02-14T10:16:00.195Z,10.96
2019-02-14T10:17:00.254Z,10.89
2019-02-14T10:18:00.167Z,10.86
2019-02-14T10:19:00.164Z,10.80
2019-02-14T10:20:00.294Z,10.88
2019-02-14T10:21:00.141Z,11.06
2019-02-14T10:22:00.126Z,11.07
2019-02-14T10:23:00.125Z,11.29
2019-02-14T10:24:00.112Z,11.67
2019-02-14T10:25:00.155Z,11.97
2019-02-14T10:26:00.090Z,12.13
2019-02-14T10:27:00.119Z,11.86
2019-02-14T10:28:00.057Z,11.77
2019-02-14T10:29:00.053Z,11.97
2019-02-14T10:30:00.037Z,12.08
2019-02-14T10:31:00.026Z,12.01
2019-02-14T10:32:00.017Z,12.24
2019-02-14T10:33:00.039Z,12.13
2019-02-14T10:33:59.993Z,12.48
2019-02-14T10:34:59.989Z,12.64
2019-02-14T10:35:59.976Z,12.48
2019-02-14T10:36:59.967Z,12.49
2019-02-14T10:37:59.951Z,12.77
2019-02-14T10:38:59.963Z,13.09
2019-02-14T10:39:59.932Z,12.84
2019-02-14T10:40:59.917Z,12.87
2019-02-14T10:41:59.905Z,12.89
2019-02-14T10:42:59.901Z,12.56
2019-02-14T10:43:59.944Z,12.26
2019-02-14T10:44:59.877Z,12.39
2019-02-14T10:45:59.861Z,12.64
2019-02-14T10:46:59.852Z,12.57
2019-02-14T10:47:59.844Z,12.69
2019-02-14T10:48:59.834Z,12.49
2019-02-14T10:49:59.854Z,12.56
2019-02-14T10:50:59.884Z,12.29
2019-02-14T10:51:59.800Z,12.12
2019-02-14T10:52:59.807Z,12.04
2019-02-14T10:53:59.782Z,12.06
2019-02-14T10:54:59.766Z,12.11
2019-02-14T10:55:59.816Z,12.69
2019-02-14T10:56:59.783Z,12.95
2019-02-14T10:57:59.735Z,12.57
2019-02-14T10:58:59.720Z,12.62
2019-02-14T10:59:59.709Z,13.25
2019-02-14T11:00:59.699Z,13.71
2019-02-14T11:01:59.688Z,13.83
2019-02-14T11:02:59.712Z,14.07
2019-02-14T11:03:59.674Z,14.17
2019-02-14T11:04:59.653Z,14.19
2019-02-14T11:05:59.678Z,13.98
2019-02-14T11:06:59.632Z,14.17
2019-02-14T11:07:59.625Z,14.25
2019-02-14T11:08:59.615Z,14.43
2019-02-14T11:09:59.606Z,14.56
2019-02-14T11:10:59.622Z,14.12
2019-02-14T11:11:59.584Z,13.88
2019-02-14T11:12:59.599Z,14.16
2019-02-14T11:13:59.559Z,13.98
2019-02-14T11:14:59.549Z,13.99
2019-02-14T11:15:59.533Z,14.14
2019-02-14T11:16:59.529Z,14.42
2019-02-14T11:17:59.657Z,14.56
2019-02-14T11:18:59.512Z,14.87
2019-02-14T11:19:59.493Z,15.24
2019-02-14T11:20:59.480Z,15.48
2019-02-14T11:21:59.468Z,15.66
2019-02-14T11:22:59.455Z,15.94
2019-02-14T11:23:59.465Z,16.14
2019-02-14T11:24:59.446Z,16.25
2019-02-14T11:25:59.429Z,16.12
2019-02-14T11:26:59.417Z,16.50
2019-02-14T11:27:59.401Z,16.58
2019-02-14T11:28:59.428Z,16.75
2019-02-14T11:29:59.380Z,16.73
2019-02-14T11:30:59.368Z,16.67
2019-02-14T11:31:59.362Z,16.81
2019-02-14T11:32:59.346Z,16.74
2019-02-14T11:33:59.371Z,16.44
2019-02-14T11:34:59.325Z,16.44
2019-02-14T11:35:59.314Z,16.37
2019-02-14T11:36:59.303Z,16.75
2019-02-14T11:37:59.300Z,16.62
2019-02-14T11:38:59.301Z,16.81
2019-02-14T11:39:59.271Z,16.85
2019-02-14T11:40:59.265Z,16.62
2019-02-14T11:41:59.255Z,16.06
2019-02-14T11:42:59.239Z,14.74
2019-02-14T11:43:59.315Z,14.60
2019-02-14T11:44:59.239Z,14.13
2019-02-14T11:45:59.225Z,14.25
2019-02-14T11:46:59.195Z,14.28
2019-02-14T11:47:59.187Z,14.16
2019-02-14T11:48:59.183Z,14.35
2019-02-14T11:49:59.198Z,14.29
2019-02-14T11:50:59.154Z,14.46
2019-02-14T11:51:59.145Z,14.57
2019-02-14T11:52:59.129Z,13.92
2019-02-14T11:53:59.142Z,13.92
2019-02-14T11:54:59.110Z,13.88
2019-02-14T11:55:59.154Z,13.09
2019-02-14T11:56:59.089Z,13.24
2019-02-14T11:57:59.080Z,13.43
2019-02-14T11:58:59.089Z,13.51
2019-02-14T11:59:59.060Z,13.65
2019-02-14T12:00:59.045Z,13.73
2019-02-14T12:01:59.040Z,13.96
2019-02-14T12:02:59.020Z,14.20
2019-02-14T12:03:59.174Z,14.32
2019-02-14T12:04:58.997Z,14.50
2019-02-14T12:05:58.992Z,14.56
2019-02-14T12:06:58.983Z,14.62
2019-02-14T12:07:58.965Z,14.83
2019-02-14T12:09:00.415Z,15.01
2019-02-14T12:09:59.014Z,15.27
2019-02-14T12:10:58.934Z,15.38
2019-02-14T12:11:58.927Z,15.19
2019-02-14T12:12:58.910Z,14.93
2019-02-14T12:13:58.907Z,14.57
2019-02-14T12:14:58.894Z,14.28
2019-02-14T12:15:58.932Z,14.07
2019-02-14T12:16:58.870Z,13.84
2019-02-14T12:17:58.862Z,13.80
2019-02-14T12:18:58.851Z,13.88
2019-02-14T12:19:58.834Z,13.94
2019-02-14T12:20:58.826Z,14.02
2019-02-14T12:21:58.842Z,13.98
2019-02-14T12:22:58.809Z,14.19
2019-02-14T12:23:58.800Z,14.16
2019-02-14T12:24:58.787Z,14.16
2019-02-14T12:25:58.806Z,14.01
2019-02-14T12:26:58.794Z,14.20
2019-02-14T12:27:58.754Z,14.14
2019-02-14T12:28:58.741Z,14.04
2019-02-14T12:29:58.727Z,14.02
2019-02-14T12:30:58.714Z,14.16
2019-02-14T12:31:58.728Z,14.35
2019-02-14T12:32:58.704Z,14.44
2019-02-14T12:33:58.692Z,14.62
2019-02-14T12:34:58.677Z,14.68
2019-02-14T12:35:58.666Z,14.72
2019-02-14T12:36:58.686Z,14.83
2019-02-14T12:37:58.672Z,14.93
2019-02-14T12:38:58.628Z,15.03
2019-02-14T12:39:58.616Z,15.15
2019-02-14T12:40:58.634Z,15.28
2019-02-14T12:41:58.609Z,15.35
2019-02-14T12:42:58.654Z,15.09
2019-02-14T12:43:58.592Z,14.86
2019-02-14T12:44:58.567Z,14.60
2019-02-14T12:45:58.555Z,14.50
2019-02-14T12:46:58.545Z,14.53
2019-02-14T12:47:58.535Z,14.50
2019-02-14T12:48:58.555Z,14.54
2019-02-14T12:49:58.509Z,14.64
2019-02-14T12:50:58.503Z,14.72
2019-02-14T12:51:58.487Z,14.81
2019-02-14T12:52:58.475Z,15.01
2019-02-14T12:53:58.481Z,15.12
2019-02-14T12:54:58.454Z,15.06
2019-02-14T12:55:58.445Z,14.94
2019-02-14T12:56:58.438Z,15.19
2019-02-14T12:57:58.425Z,15.52
2019-02-14T12:58:58.450Z,15.75
2019-02-14T12:59:58.404Z,15.97
2019-02-14T13:00:58.391Z,15.93
2019-02-14T13:01:58.383Z,16.07
2019-02-14T13:02:58.389Z,16.15
2019-02-14T13:03:58.421Z,16.18
2019-02-14T13:04:58.358Z,15.93
2019-02-14T13:05:58.360Z,15.52
2019-02-14T13:06:58.329Z,15.33
2019-02-14T13:07:58.313Z,15.28
2019-02-14T13:08:58.304Z,15.30
2019-02-14T13:09:58.327Z,15.21
2019-02-14T13:10:58.286Z,15.27